Time;durP1;ratioP1;P1;durP2;ratioP2;P2;SDS_P1;SDS_P2;PMS_P1;PMS_P2;Temp;Humidity;BMP_temperature;BMP_pressure;BME280_temperature;BME280_humidity;BME280_pressure;Samples;Min_cycle;Max_cycle;Signal;HPM_P1;HPM_P2
2021/12/20 00:01:20;;;;;;;20.50;4.68;;;6.50;99.90;;;;;;5138978;27;20440;-71
2021/12/20 00:03:47;;;;;;;25.83;5.07;;;6.50;99.90;;;;;;5139335;27;20462;-72
2021/12/20 00:06:14;;;;;;;18.38;4.93;;;6.50;99.90;;;;;;5138575;27;20051;-71
2021/12/20 00:08:42;;;;;;;18.98;4.68;;;6.50;99.90;;;;;;5137724;27;20095;-71
2021/12/20 00:11:09;;;;;;;22.90;5.57;;;6.50;99.90;;;;;;5133818;27;20047;-72
2021/12/20 00:13:36;;;;;;;26.83;4.53;;;6.50;99.90;;;;;;5117511;27;20108;-72
2021/12/20 00:16:03;;;;;;;16.98;4.13;;;6.40;99.90;;;;;;5117396;27;20453;-71
2021/12/20 00:18:30;;;;;;;24.33;5.15;;;6.40;99.90;;;;;;5117898;27;20456;-71
2021/12/20 00:20:57;;;;;;;15.60;4.47;;;6.30;99.90;;;;;;5117313;27;20100;-71
2021/12/20 00:23:23;;;;;;;17.13;4.68;;;6.30;99.90;;;;;;5116713;27;20043;-71
2021/12/20 00:25:52;;;;;;;25.95;5.35;;;6.20;99.90;;;;;;5117595;27;20478;-71
2021/12/20 00:28:19;;;;;;;15.23;5.13;;;6.20;99.90;;;;;;5117038;27;20456;-71
2021/12/20 00:30:47;;;;;;;21.83;4.22;;;6.20;99.90;;;;;;5127255;27;20082;-72
2021/12/20 00:33:15;;;;;;;18.33;3.53;;;6.20;99.90;;;;;;5137895;27;20150;-73
2021/12/20 00:35:42;;;;;;;17.58;4.07;;;6.20;99.90;;;;;;5137390;27;20135;-72
2021/12/20 00:40:54;;;;;;;20.20;5.10;;;6.10;99.90;;;;;;5137679;27;20045;-72
2021/12/20 00:43:22;;;;;;;18.83;4.53;;;6.10;99.90;;;;;;5137194;27;20081;-72
2021/12/20 00:45:48;;;;;;;17.90;3.97;;;6.10;99.90;;;;;;5133506;27;20143;-73
2021/12/20 00:48:15;;;;;;;14.27;3.50;;;6.10;99.90;;;;;;5117183;27;20131;-73
2021/12/20 00:50:44;;;;;;;19.00;4.47;;;6.00;99.90;;;;;;5116614;27;20494;-71
2021/12/20 00:53:12;;;;;;;15.63;3.67;;;6.10;99.90;;;;;;5136677;27;20129;-73
2021/12/20 00:55:40;;;;;;;16.10;3.50;;;6.00;99.90;;;;;;5137685;27;20449;-72
2021/12/20 00:58:08;;;;;;;15.68;3.50;;;6.00;99.90;;;;;;5117740;27;20051;-71
2021/12/20 01:00:38;;;;;;;14.10;3.22;;;6.00;99.90;;;;;;5117130;27;20425;-70
2021/12/20 01:03:07;;;;;;;16.15;3.92;;;6.00;99.90;;;;;;5117252;27;20082;-70
2021/12/20 01:05:35;;;;;;;16.02;3.58;;;6.00;99.90;;;;;;5115976;27;20120;-71
2021/12/20 01:08:05;;;;;;;23.02;4.78;;;6.00;99.90;;;;;;5135205;27;20046;-71
2021/12/20 01:10:33;;;;;;;16.33;3.97;;;6.00;99.90;;;;;;5116475;27;20082;-72
2021/12/20 01:13:02;;;;;;;13.52;2.92;;;6.00;99.90;;;;;;5116268;27;20519;-72
2021/12/20 01:15:33;;;;;;;11.85;3.28;;;5.90;99.90;;;;;;5116206;27;20043;-72
2021/12/20 01:18:01;;;;;;;17.23;3.05;;;5.90;99.90;;;;;;5116429;27;20055;-72
2021/12/20 01:20:29;;;;;;;16.08;3.10;;;5.90;99.90;;;;;;5116502;27;20104;-71
2021/12/20 01:22:56;;;;;;;9.63;2.85;;;5.90;99.90;;;;;;5118416;27;20103;-71
2021/12/20 01:25:23;;;;;;;18.52;3.67;;;5.90;99.90;;;;;;5115197;27;20075;-72
2021/12/20 01:27:50;;;;;;;13.43;2.80;;;5.90;99.90;;;;;;5116079;27;20478;-71
2021/12/20 01:30:20;;;;;;;14.40;3.28;;;5.90;99.90;;;;;;5116266;27;20193;-72
2021/12/20 01:32:48;;;;;;;12.88;2.40;;;5.90;99.90;;;;;;5115843;27;20093;-72
2021/12/20 01:35:16;;;;;;;13.40;3.63;;;5.90;99.90;;;;;;5115709;27;20078;-71
2021/12/20 01:37:43;;;;;;;13.07;3.15;;;5.90;99.90;;;;;;5116267;27;20082;-72
2021/12/20 01:40:14;;;;;;;18.70;2.40;;;5.80;99.90;;;;;;5115305;27;20086;-72
2021/12/20 01:42:41;;;;;;;;;;;5.80;99.90;;;;;;5116452;27;20131;-74
2021/12/20 01:45:13;;;;;;;9.40;2.97;;;5.80;99.90;;;;;;5115516;27;19970;-72
2021/12/20 01:47:44;;;;;;;17.42;3.42;;;5.80;99.90;;;;;;5115268;27;20049;-72
2021/12/20 01:50:19;;;;;;;11.18;2.47;;;5.80;99.90;;;;;;5115687;27;20154;-72
2021/12/20 01:52:46;;;;;;;14.65;4.00;;;5.80;99.90;;;;;;5131629;27;20138;-72
2021/12/20 01:55:15;;;;;;;14.45;3.08;;;5.70;99.90;;;;;;5135281;27;20533;-72
2021/12/20 01:57:42;;;;;;;6.00;2.00;;;5.80;99.90;;;;;;5136445;27;20102;-72
2021/12/20 02:00:13;;;;;;;7.32;2.67;;;5.70;99.90;;;;;;5135397;27;20085;-72
2021/12/20 02:02:41;;;;;;;13.90;2.78;;;5.70;99.90;;;;;;5154850;27;20051;-72
2021/12/20 02:05:17;;;;;;;8.85;2.38;;;5.70;99.90;;;;;;5154523;27;20061;-72
2021/12/20 02:07:59;;;;;;;14.07;2.63;;;5.70;99.90;;;;;;5135744;27;20050;-72
2021/12/20 02:10:26;;;;;;;10.23;2.28;;;5.70;99.90;;;;;;5136000;27;20520;-72
2021/12/20 02:12:53;;;;;;;11.18;2.78;;;5.70;99.90;;;;;;5115614;27;20099;-72
2021/12/20 02:15:20;;;;;;;15.27;2.65;;;5.60;99.90;;;;;;5114601;27;20046;-72
2021/12/20 02:17:47;;;;;;;10.32;2.85;;;5.70;99.90;;;;;;5115732;27;20381;-73
2021/12/20 02:20:26;;;;;;;11.60;2.65;;;5.70;99.90;;;;;;5115269;27;20047;-73
2021/12/20 02:22:55;;;;;;;13.10;2.35;;;5.60;99.90;;;;;;5114598;27;20123;-73
2021/12/20 02:25:22;;;;;;;8.38;2.42;;;5.60;99.90;;;;;;5115190;27;20046;-73
2021/12/20 02:27:49;;;;;;;9.30;3.03;;;5.60;99.90;;;;;;5115871;27;20046;-72
2021/12/20 02:30:38;;;;;;;15.48;3.15;;;5.70;99.90;;;;;;5114958;28;20445;-73
2021/12/20 02:38:37;;;;;;;14.07;2.88;;;5.70;99.90;;;;;;5115885;28;20054;-73
2021/12/20 02:41:07;;;;;;;13.38;3.20;;;5.70;99.90;;;;;;5115087;28;20099;-73
2021/12/20 02:43:38;;;;;;;;;;;5.70;99.90;;;;;;5115123;28;20066;-73
2021/12/20 02:46:10;;;;;;;10.55;2.63;;;5.70;99.90;;;;;;5114934;28;19934;-73
2021/12/20 02:48:37;;;;;;;12.80;3.13;;;5.70;99.90;;;;;;5115333;28;20051;-73
2021/12/20 02:51:05;;;;;;;12.82;3.05;;;5.70;99.90;;;;;;5115284;27;20051;-73
2021/12/20 02:53:32;;;;;;;11.02;2.42;;;5.60;99.90;;;;;;5135765;27;20100;-72
2021/12/20 02:55:59;;;;;;;13.60;2.78;;;5.60;99.90;;;;;;5135341;27;20527;-73
2021/12/20 02:58:26;;;;;;;6.30;2.60;;;5.60;99.90;;;;;;5134841;27;20051;-72
2021/12/20 03:00:53;;;;;;;11.60;3.47;;;5.60;99.90;;;;;;5135207;27;20047;-72
2021/12/20 03:03:20;;;;;;;9.25;2.20;;;5.60;99.90;;;;;;5135080;27;20078;-72
2021/12/20 03:05:47;;;;;;;12.50;3.05;;;5.60;99.90;;;;;;5135134;27;20514;-72
2021/12/20 03:08:15;;;;;;;9.95;2.63;;;5.60;99.90;;;;;;5135702;27;20051;-72
2021/12/20 03:10:42;;;;;;;11.50;2.75;;;5.60;99.90;;;;;;5134527;27;20051;-73
2021/12/20 03:13:10;;;;;;;19.30;2.72;;;5.60;99.90;;;;;;5135248;27;20064;-72
2021/12/20 03:15:37;;;;;;;9.02;2.25;;;5.60;99.90;;;;;;5135588;27;20371;-72
2021/12/20 03:18:04;;;;;;;8.90;2.85;;;5.60;99.90;;;;;;5130744;28;20047;-72
2021/12/20 03:20:31;;;;;;;10.30;2.65;;;5.60;99.90;;;;;;5114808;28;20054;-71
2021/12/20 03:22:58;;;;;;;14.07;3.42;;;5.50;99.90;;;;;;5129315;28;20054;-71
2021/12/20 03:25:26;;;;;;;14.88;3.72;;;5.50;99.90;;;;;;5113943;28;20084;-71
2021/12/20 03:27:53;;;;;;;12.90;2.65;;;5.50;99.90;;;;;;5114656;28;20556;-72
2021/12/20 03:30:21;;;;;;;8.32;2.53;;;5.50;99.90;;;;;;5114658;28;20108;-71
2021/12/20 03:32:48;;;;;;;16.17;3.72;;;5.40;99.90;;;;;;5131271;28;20100;-71
2021/12/20 03:35:15;;;;;;;14.95;3.13;;;5.40;99.90;;;;;;5114864;28;20107;-72
2021/12/20 03:37:43;;;;;;;13.13;2.58;;;5.30;99.90;;;;;;5115117;28;20452;-72
2021/12/20 03:40:11;;;;;;;6.82;2.45;;;5.30;99.90;;;;;;5114108;28;20189;-71
2021/12/20 03:42:42;;;;;;;14.50;2.50;;;5.30;99.90;;;;;;5114741;28;20082;-72
2021/12/20 03:45:13;;;;;;;14.20;3.45;;;5.30;99.90;;;;;;5131505;27;20216;-72
2021/12/20 03:47:40;;;;;;;12.63;3.40;;;5.20;99.90;;;;;;5137322;27;20054;-72
2021/12/20 03:50:07;;;;;;;13.68;3.30;;;5.20;99.90;;;;;;5139044;27;20051;-72
2021/12/20 03:52:36;;;;;;;12.45;2.60;;;5.20;99.90;;;;;;5133482;27;20503;-70
2021/12/20 03:55:03;;;;;;;13.30;3.47;;;5.20;99.90;;;;;;5118402;27;20040;-70
2021/12/20 03:57:30;;;;;;;9.00;2.95;;;5.20;99.90;;;;;;5117482;27;20495;-70
2021/12/20 03:59:58;;;;;;;10.38;2.95;;;5.20;99.90;;;;;;5117193;27;20499;-71
2021/12/20 04:02:26;;;;;;;9.52;2.42;;;5.20;99.90;;;;;;5117688;27;20452;-70
2021/12/20 04:04:53;;;;;;;17.10;3.08;;;5.20;99.90;;;;;;5117967;27;20126;-70
2021/12/20 04:07:20;;;;;;;8.65;2.08;;;5.20;99.90;;;;;;5116849;27;20047;-70
2021/12/20 04:09:46;;;;;;;8.73;2.38;;;5.20;99.90;;;;;;5117931;27;20111;-72
2021/12/20 04:12:14;;;;;;;12.05;3.53;;;5.20;99.90;;;;;;5117827;27;20092;-71
2021/12/20 04:14:40;;;;;;;13.65;2.67;;;5.20;99.90;;;;;;5117879;27;20399;-71
2021/12/20 04:17:09;;;;;;;12.18;3.03;;;5.20;99.90;;;;;;5125109;27;20110;-71
2021/12/20 04:19:35;;;;;;;11.38;2.53;;;5.10;99.90;;;;;;5138638;27;20055;-72
2021/12/20 04:22:02;;;;;;;14.77;3.58;;;5.10;99.90;;;;;;5137872;27;20058;-71
2021/12/20 04:24:29;;;;;;;12.23;3.58;;;5.00;99.90;;;;;;5134146;27;20395;-70
2021/12/20 04:26:56;;;;;;;11.75;2.58;;;5.00;99.90;;;;;;5134278;27;20498;-70
2021/12/20 04:29:23;;;;;;;10.88;2.30;;;5.00;99.90;;;;;;5134109;27;20047;-71
2021/12/20 04:31:50;;;;;;;11.25;2.85;;;4.90;99.90;;;;;;5117166;27;20048;-70
2021/12/20 04:34:18;;;;;;;9.93;2.00;;;4.80;99.90;;;;;;5117451;27;20050;-70
2021/12/20 04:36:45;;;;;;;10.13;2.20;;;4.80;99.90;;;;;;5134733;27;20206;-71
2021/12/20 04:39:16;;;;;;;9.10;2.78;;;4.70;99.90;;;;;;5134417;27;20088;-70
2021/12/20 04:41:43;;;;;;;16.52;2.90;;;4.60;99.90;;;;;;5134178;27;20139;-71
2021/12/20 04:44:09;;;;;;;15.23;2.88;;;4.50;99.90;;;;;;5133666;27;20582;-71
2021/12/20 04:46:36;;;;;;;14.85;3.33;;;4.40;99.90;;;;;;5116912;27;20444;-71
2021/12/20 04:49:04;;;;;;;8.20;2.60;;;4.30;99.90;;;;;;5116513;27;20563;-71
2021/12/20 04:51:33;;;;;;;11.55;3.38;;;4.30;99.90;;;;;;5133915;27;20042;-70
2021/12/20 04:53:59;;;;;;;15.05;2.40;;;4.20;99.90;;;;;;5117136;27;20055;-70
2021/12/20 04:56:26;;;;;;;13.07;2.70;;;4.10;99.90;;;;;;5115974;27;20051;-71
2021/12/20 04:58:53;;;;;;;11.23;2.72;;;4.00;99.90;;;;;;5115819;27;20155;-70
2021/12/20 05:01:20;;;;;;;10.88;2.92;;;3.90;99.90;;;;;;5117154;27;20324;-71
2021/12/20 05:03:47;;;;;;;12.05;2.95;;;3.80;99.90;;;;;;5116259;27;20447;-71
2021/12/20 05:06:14;;;;;;;8.88;2.42;;;3.80;99.90;;;;;;5116351;27;20047;-71
2021/12/20 05:08:48;;;;;;;6.25;2.72;;;3.60;99.90;;;;;;5116855;27;20055;-71
2021/12/20 05:11:15;;;;;;;12.75;3.10;;;3.60;99.90;;;;;;5116175;27;20138;-71
2021/12/20 05:13:42;;;;;;;16.30;2.35;;;3.50;99.90;;;;;;5116261;27;20174;-70
2021/12/20 05:16:09;;;;;;;19.92;2.80;;;3.40;99.90;;;;;;5116803;27;20111;-70
2021/12/20 05:18:36;;;;;;;13.10;3.08;;;3.40;99.90;;;;;;5130420;27;20115;-70
2021/12/20 05:21:03;;;;;;;9.10;2.25;;;3.30;99.90;;;;;;5145150;27;20565;-71
2021/12/20 05:23:30;;;;;;;11.25;2.65;;;3.20;99.90;;;;;;5149508;27;20050;-70
2021/12/20 05:25:58;;;;;;;15.23;4.13;;;3.10;99.90;;;;;;5148256;27;20043;-71
2021/12/20 05:28:25;;;;;;;11.27;2.53;;;3.10;99.90;;;;;;5141723;27;20379;-71
2021/12/20 05:30:53;;;;;;;13.70;3.45;;;3.00;99.90;;;;;;5137991;27;20455;-71
2021/12/20 05:33:20;;;;;;;7.95;2.35;;;3.00;99.90;;;;;;5136470;27;20553;-69
2021/12/20 05:35:47;;;;;;;11.38;3.58;;;2.90;99.90;;;;;;5136332;27;20091;-71
2021/12/20 05:38:14;;;;;;;9.50;2.42;;;2.80;99.90;;;;;;5136137;27;20107;-70
2021/12/20 05:40:41;;;;;;;12.13;3.10;;;2.80;99.90;;;;;;5129932;27;20448;-69
2021/12/20 05:43:09;;;;;;;10.63;3.45;;;2.80;99.90;;;;;;5142284;27;20112;-70
2021/12/20 05:45:36;;;;;;;13.27;3.55;;;2.80;99.90;;;;;;5132685;27;20100;-70
2021/12/20 05:48:03;;;;;;;9.52;3.03;;;2.70;99.90;;;;;;5130871;27;20051;-70
2021/12/20 05:50:32;;;;;;;10.18;2.72;;;2.60;99.90;;;;;;5131475;27;20166;-70
2021/12/20 05:52:59;;;;;;;21.40;3.30;;;2.60;99.90;;;;;;5130114;27;20047;-70
2021/12/20 05:55:26;;;;;;;13.63;3.15;;;2.50;99.90;;;;;;5129200;27;20514;-70
2021/12/20 05:57:53;;;;;;;12.88;2.72;;;2.50;99.90;;;;;;5131000;27;20486;-70
2021/12/20 06:00:22;;;;;;;8.10;2.65;;;2.40;99.90;;;;;;5131537;27;20567;-71
2021/12/20 06:02:51;;;;;;;8.27;2.80;;;2.40;99.90;;;;;;5150010;27;20049;-70
2021/12/20 06:05:19;;;;;;;12.20;2.85;;;2.30;99.90;;;;;;5129513;27;20522;-70
2021/12/20 06:07:46;;;;;;;8.60;2.60;;;2.20;99.90;;;;;;5128338;27;20051;-70
2021/12/20 06:10:15;;;;;;;11.20;3.55;;;2.20;99.90;;;;;;5131726;27;20142;-70
2021/12/20 06:12:42;;;;;;;12.80;3.72;;;2.20;99.90;;;;;;5134814;27;20046;-71
2021/12/20 06:15:10;;;;;;;12.18;3.05;;;2.10;99.90;;;;;;5133780;27;20054;-70
2021/12/20 06:17:39;;;;;;;11.40;2.78;;;2.10;99.90;;;;;;5150015;27;20470;-70
2021/12/20 06:20:08;;;;;;;10.90;2.88;;;2.20;99.90;;;;;;5130720;27;20086;-71
2021/12/20 06:22:35;;;;;;;14.38;3.22;;;2.00;99.90;;;;;;5147088;27;20406;-70
2021/12/20 06:25:02;;;;;;;12.00;2.95;;;2.00;99.90;;;;;;5129109;27;20528;-71
2021/12/20 06:27:29;;;;;;;7.30;2.72;;;1.90;99.90;;;;;;5131228;27;20039;-70
2021/12/20 06:29:56;;;;;;;7.13;2.92;;;1.80;99.90;;;;;;5128878;27;20102;-70
2021/12/20 06:32:23;;;;;;;10.10;2.78;;;1.80;99.90;;;;;;5131468;27;20050;-69
2021/12/20 06:34:51;;;;;;;17.85;3.33;;;1.80;99.90;;;;;;5127125;27;20506;-70
2021/12/20 06:37:18;;;;;;;10.07;2.58;;;1.70;99.90;;;;;;5130078;27;20509;-69
2021/12/20 06:39:45;;;;;;;11.88;3.67;;;1.70;99.90;;;;;;5134342;27;20473;-69
2021/12/20 06:42:12;;;;;;;21.83;3.42;;;1.60;99.90;;;;;;5131206;27;20050;-70
2021/12/20 06:44:39;;;;;;;10.90;3.10;;;1.60;99.90;;;;;;5149956;27;20088;-70
2021/12/20 06:47:06;;;;;;;12.40;3.10;;;1.50;99.90;;;;;;5129151;27;20072;-70
2021/12/20 06:49:33;;;;;;;11.25;3.20;;;1.50;99.90;;;;;;5149097;27;20103;-70
2021/12/20 06:52:03;;;;;;;16.13;3.85;;;1.50;99.90;;;;;;5131627;27;20054;-70
2021/12/20 06:54:30;;;;;;;9.70;3.40;;;1.40;99.90;;;;;;5123556;28;20051;-71
2021/12/20 06:56:57;;;;;;;12.07;3.03;;;1.40;99.90;;;;;;5122772;27;20051;-70
2021/12/20 06:59:23;;;;;;;14.30;3.47;;;1.40;99.90;;;;;;5124480;28;20055;-70
2021/12/20 07:01:50;;;;;;;18.13;3.13;;;0.60;99.90;;;;;;5130739;27;20112;-69
2021/12/20 07:04:17;;;;;;;19.83;3.53;;;1.40;99.90;;;;;;5123691;27;20498;-69
2021/12/20 07:06:44;;;;;;;12.95;3.85;;;1.40;99.90;;;;;;5121088;27;20047;-70
2021/12/20 07:09:13;;;;;;;7.53;2.97;;;1.30;99.90;;;;;;5124432;28;20085;-69
2021/12/20 07:11:42;;;;;;;17.30;3.78;;;1.30;99.90;;;;;;5131588;27;20096;-69
2021/12/20 07:14:09;;;;;;;8.73;3.28;;;1.30;99.90;;;;;;5119012;27;20047;-70
2021/12/20 07:16:37;;;;;;;10.93;3.20;;;1.30;99.90;;;;;;5118745;27;20126;-70
2021/12/20 07:19:05;;;;;;;10.90;3.65;;;1.20;99.90;;;;;;5121889;27;20047;-69
2021/12/20 07:21:32;;;;;;;17.70;5.25;;;1.20;99.90;;;;;;5130600;27;20051;-69
2021/12/20 07:23:59;;;;;;;11.32;3.63;;;1.20;99.90;;;;;;5125907;27;20069;-70
2021/12/20 07:26:27;;;;;;;18.30;3.70;;;1.20;99.90;;;;;;5125652;27;20429;-70
2021/12/20 07:28:54;;;;;;;17.40;4.57;;;1.20;99.90;;;;;;5134796;27;20046;-70
2021/12/20 07:31:22;;;;;;;16.50;3.83;;;1.20;99.90;;;;;;5132944;27;20138;-70
2021/12/20 07:33:49;;;;;;;14.00;5.00;;;1.20;99.90;;;;;;5139637;27;20417;-70
2021/12/20 07:36:19;;;;;;;15.57;3.35;;;1.20;99.90;;;;;;5125310;27;20043;-70
2021/12/20 07:38:47;;;;;;;15.13;3.97;;;1.20;99.90;;;;;;5128890;27;20511;-71
2021/12/20 07:41:14;;;;;;;13.35;3.20;;;1.10;99.90;;;;;;5118623;27;20519;-69
2021/12/20 07:43:42;;;;;;;13.02;3.22;;;1.20;99.90;;;;;;5125579;27;20119;-71
2021/12/20 07:46:09;;;;;;;16.25;3.50;;;1.20;99.90;;;;;;5123321;27;20043;-70
2021/12/20 07:48:36;;;;;;;9.40;3.72;;;1.10;99.90;;;;;;5125254;27;20091;-70
2021/12/20 07:51:04;;;;;;;12.77;3.45;;;1.10;99.90;;;;;;5130778;27;20050;-70
2021/12/20 07:53:31;;;;;;;10.88;2.95;;;1.20;99.90;;;;;;5123499;27;20139;-71
2021/12/20 07:55:58;;;;;;;11.00;3.00;;;1.20;99.90;;;;;;5132872;27;20050;-69
2021/12/20 07:58:25;;;;;;;9.82;2.95;;;1.20;99.90;;;;;;5129460;27;20127;-70
2021/12/20 08:00:54;;;;;;;9.38;2.90;;;1.30;99.90;;;;;;5122557;27;20119;-70
2021/12/20 08:03:21;;;;;;;8.18;3.08;;;1.40;99.90;;;;;;5133243;27;20137;-70
2021/12/20 08:05:48;;;;;;;9.65;3.63;;;1.60;99.90;;;;;;5134925;27;20050;-70
2021/12/20 08:08:15;;;;;;;11.73;4.50;;;1.60;99.90;;;;;;5127379;27;20047;-69
2021/12/20 08:10:42;;;;;;;11.07;3.40;;;1.60;99.90;;;;;;5134104;27;20059;-69
2021/12/20 08:13:09;;;;;;;7.95;2.90;;;1.60;99.90;;;;;;5134045;27;20107;-70
2021/12/20 08:15:36;;;;;;;13.25;3.30;;;1.70;99.90;;;;;;5123977;27;20130;-70
2021/12/20 08:18:04;;;;;;;17.83;4.30;;;1.80;99.90;;;;;;5130999;27;20050;-73
2021/12/20 08:20:31;;;;;;;20.40;3.35;;;2.00;99.90;;;;;;5126624;27;20073;-74
2021/12/20 08:22:58;;;;;;;10.80;3.28;;;2.40;99.90;;;;;;5137493;27;20047;-75
2021/12/20 08:25:25;;;;;;;10.25;3.83;;;3.00;99.90;;;;;;5131791;27;20104;-74
2021/12/20 08:27:52;;;;;;;12.10;3.97;;;3.60;99.90;;;;;;5127689;27;20046;-71
2021/12/20 08:30:21;;;;;;;13.27;5.47;;;4.10;99.90;;;;;;5131287;27;20052;-71
2021/12/20 08:32:48;;;;;;;8.50;3.78;;;4.60;99.90;;;;;;5126527;27;20058;-70
2021/12/20 08:35:16;;;;;;;11.50;4.35;;;5.20;99.90;;;;;;5123806;27;20372;-70
2021/12/20 08:37:44;;;;;;;8.48;3.78;;;5.70;99.90;;;;;;5119022;27;20111;-68
2021/12/20 08:40:14;;;;;;;10.18;4.25;;;6.20;99.90;;;;;;5116199;27;20070;-70
2021/12/20 08:42:42;;;;;;;13.02;4.22;;;6.70;99.90;;;;;;5124909;27;20115;-71
2021/12/20 08:45:11;;;;;;;13.00;4.43;;;7.20;99.90;;;;;;5121995;27;20524;-74
2021/12/20 08:47:39;;;;;;;10.80;3.58;;;7.70;99.90;;;;;;5128955;27;20095;-72
2021/12/20 08:50:09;;;;;;;10.88;4.70;;;8.10;99.90;;;;;;5122950;27;20050;-72
2021/12/20 08:52:37;;;;;;;16.33;7.97;;;8.60;99.90;;;;;;5123444;27;20043;-69
2021/12/20 08:55:06;;;;;;;16.17;6.07;;;9.10;99.90;;;;;;5122420;27;20111;-69
2021/12/20 08:57:33;;;;;;;12.02;5.75;;;9.50;99.90;;;;;;5124931;27;20096;-69
2021/12/20 09:00:01;;;;;;;11.07;4.90;;;10.00;99.90;;;;;;5124188;27;20524;-65
2021/12/20 09:02:28;;;;;;;9.55;4.57;;;10.30;99.90;;;;;;5125971;27;20099;-69
2021/12/20 09:04:55;;;;;;;21.90;6.00;;;10.80;99.90;;;;;;5125939;27;20103;-69
2021/12/20 09:07:21;;;;;;;15.40;5.10;;;11.10;99.90;;;;;;5132559;27;20131;-67
2021/12/20 09:09:50;;;;;;;10.65;4.47;;;11.50;99.90;;;;;;5146277;27;20091;-69
2021/12/20 09:12:20;;;;;;;13.80;4.63;;;11.90;99.90;;;;;;5129992;27;20507;-69
2021/12/20 09:14:47;;;;;;;;;;;12.20;99.90;;;;;;5122997;27;20051;-69
2021/12/20 09:17:14;;;;;;;13.25;4.47;;;12.50;99.90;;;;;;5118802;27;19919;-70
2021/12/20 09:19:41;;;;;;;15.48;4.75;;;13.00;99.90;;;;;;5129459;27;20087;-69
2021/12/20 09:22:11;;;;;;;15.98;5.43;;;13.20;99.90;;;;;;5122287;27;20058;-68
2021/12/20 09:24:38;;;;;;;11.93;4.72;;;13.60;99.90;;;;;;5144716;27;20130;-79
2021/12/20 09:27:09;;;;;;;12.00;4.45;;;13.70;99.90;;;;;;5128683;27;20046;-70
2021/12/20 09:29:36;;;;;;;;;;;13.90;99.90;;;;;;5130653;27;20047;-73
2021/12/20 09:32:04;;;;;;;17.63;5.40;;;14.10;99.90;;;;;;5124024;27;19964;-80
2021/12/20 09:34:31;;;;;;;15.75;6.43;;;14.50;99.90;;;;;;5126577;27;20482;-72
2021/12/20 09:37:03;;;;;;;20.35;5.65;;;14.80;99.90;;;;;;5153478;27;20050;-70
2021/12/20 09:39:31;;;;;;;15.48;5.20;;;15.20;99.90;;;;;;5123147;27;20047;-71
2021/12/20 09:42:01;;;;;;;17.85;5.10;;;15.30;99.90;;;;;;5126706;27;20082;-71
2021/12/20 09:44:29;;;;;;;18.92;5.18;;;15.50;99.90;;;;;;5130506;27;20088;-71
2021/12/20 09:47:01;;;;;;;16.73;5.07;;;15.60;99.90;;;;;;5120850;27;20141;-70
2021/12/20 09:49:30;;;;;;;19.58;5.07;;;15.90;99.90;;;;;;5131089;27;20050;-71
2021/12/20 09:51:58;;;;;;;16.75;5.18;;;16.00;99.90;;;;;;5135142;27;20446;-71
2021/12/20 09:54:26;;;;;;;13.90;4.38;;;16.30;99.90;;;;;;5125884;27;20055;-71
2021/12/20 09:56:53;;;;;;;15.73;5.75;;;16.30;99.50;;;;;;5122418;27;20043;-72
2021/12/20 09:59:22;;;;;;;19.00;4.97;;;16.70;98.60;;;;;;5138794;27;20489;-71
2021/12/20 10:01:51;;;;;;;18.80;5.28;;;16.80;98.00;;;;;;5123717;27;20456;-75
2021/12/20 10:04:18;;;;;;;16.60;5.43;;;16.80;97.00;;;;;;5127798;27;20119;-71
2021/12/20 10:06:45;;;;;;;18.65;5.88;;;16.90;96.10;;;;;;5122093;27;20065;-71
2021/12/20 10:09:15;;;;;;;16.50;4.75;;;16.90;94.90;;;;;;5139146;27;20084;-71
2021/12/20 10:11:43;;;;;;;15.97;4.63;;;17.00;93.90;;;;;;5160966;27;20042;-71
2021/12/20 10:14:12;;;;;;;15.77;5.07;;;17.00;94.30;;;;;;5125230;27;20817;-71
2021/12/20 10:16:41;;;;;;;18.80;4.15;;;16.90;93.20;;;;;;5119554;27;20082;-70
2021/12/20 10:19:29;;;;;;;13.82;4.32;;;17.30;91.90;;;;;;5127032;27;20135;-71
2021/12/20 10:21:59;;;;;;;15.10;4.93;;;17.70;90.70;;;;;;5116842;27;20091;-70
2021/12/20 10:24:32;;;;;;;16.10;3.95;;;17.50;92.40;;;;;;5121114;27;20055;-71
2021/12/20 10:26:59;;;;;;;16.15;4.60;;;17.90;86.20;;;;;;5122605;27;20088;-71
2021/12/20 10:29:27;;;;;;;14.18;4.93;;;17.70;90.80;;;;;;5124662;27;20130;-70
2021/12/20 10:31:54;;;;;;;17.40;4.18;;;18.40;89.80;;;;;;5124740;27;20518;-70
2021/12/20 10:34:32;;;;;;;17.23;4.45;;;18.20;86.90;;;;;;5127107;27;20495;-70
2021/12/20 10:37:00;;;;;;;15.55;3.85;;;18.50;81.40;;;;;;5115883;27;20073;-70
2021/12/20 10:39:35;;;;;;;17.05;4.55;;;18.30;83.70;;;;;;5128470;28;20070;-71
2021/12/20 10:42:17;;;;;;;13.90;4.70;;;18.50;80.80;;;;;;5115887;28;20047;-71
2021/12/20 10:44:44;;;;;;;15.82;4.72;;;18.30;80.10;;;;;;5121315;28;20056;-71
2021/12/20 10:47:25;;;;;;;17.70;4.55;;;18.50;85.10;;;;;;5119484;27;20134;-72
2021/12/20 10:49:53;;;;;;;15.98;4.50;;;18.80;76.30;;;;;;5134340;27;20055;-72
2021/12/20 10:52:27;;;;;;;14.55;4.20;;;18.90;79.80;;;;;;5123793;28;20097;-71
2021/12/20 10:54:54;;;;;;;14.02;5.07;;;19.20;75.20;;;;;;5124916;27;20154;-71
2021/12/20 10:57:26;;;;;;;18.95;4.80;;;18.70;83.00;;;;;;5125792;27;20043;-71
2021/12/20 11:00:14;;;;;;;13.90;4.95;;;19.00;75.60;;;;;;5129362;27;20114;-71
2021/12/20 11:03:26;;;;;;;16.85;5.40;;;19.10;75.20;;;;;;5124642;27;20051;-73
2021/12/20 11:11:25;;;;;;;19.58;5.68;;;19.70;75.70;;;;;;5142056;27;20042;-71
2021/12/20 11:13:52;;;;;;;15.55;4.97;;;19.50;77.80;;;;;;5129030;27;20057;-72
2021/12/20 11:16:28;;;;;;;18.33;5.95;;;19.70;76.30;;;;;;5136953;27;20071;-71
2021/12/20 11:19:26;;;;;;;17.27;4.88;;;19.70;74.00;;;;;;5137621;27;20047;-71
2021/12/20 11:21:57;;;;;;;15.63;4.88;;;20.00;71.40;;;;;;5052797;28;20102;-71
2021/12/20 11:24:27;;;;;;;16.13;4.47;;;19.70;72.60;;;;;;5113059;27;20065;-71
2021/12/20 11:26:54;;;;;;;14.73;4.28;;;19.80;72.80;;;;;;5127149;27;20043;-72
2021/12/20 11:29:22;;;;;;;13.55;4.15;;;19.70;73.70;;;;;;5131462;27;20558;-71
2021/12/20 11:31:50;;;;;;;12.70;4.63;;;19.40;73.00;;;;;;5133445;27;20050;-72
2021/12/20 11:34:16;;;;;;;14.38;5.00;;;19.70;70.40;;;;;;5130963;27;20457;-72
2021/12/20 11:36:44;;;;;;;18.27;5.68;;;20.20;72.40;;;;;;5126398;27;20051;-71
2021/12/20 11:39:12;;;;;;;14.77;5.00;;;19.90;72.90;;;;;;5137032;27;20043;-72
2021/12/20 11:41:40;;;;;;;13.43;4.68;;;20.20;70.30;;;;;;5145202;27;20046;-71
2021/12/20 11:44:17;;;;;;;14.38;4.60;;;20.30;68.50;;;;;;5124140;27;20096;-71
2021/12/20 11:47:02;;;;;;;15.95;4.43;;;20.50;66.30;;;;;;5127016;27;20050;-71
2021/12/20 11:49:29;;;;;;;11.73;3.67;;;20.60;64.90;;;;;;5127800;27;20491;-71
2021/12/20 11:52:02;;;;;;;11.95;4.50;;;20.40;66.30;;;;;;5125305;27;20066;-71
2021/12/20 11:54:42;;;;;;;11.40;3.83;;;20.30;66.50;;;;;;5131184;27;20492;-71
2021/12/20 11:57:35;;;;;;;13.10;4.28;;;20.20;62.00;;;;;;5130504;27;20351;-72
2021/12/20 12:00:06;;;;;;;11.52;3.42;;;20.20;63.10;;;;;;5129597;27;20050;-71
2021/12/20 12:02:35;;;;;;;16.10;4.10;;;20.00;63.50;;;;;;5126278;27;20050;-71
2021/12/20 12:05:05;;;;;;;11.52;3.55;;;20.10;64.00;;;;;;5124058;27;20046;-71
2021/12/20 12:07:35;;;;;;;9.38;3.08;;;20.30;60.70;;;;;;5127972;27;20043;-71
2021/12/20 12:10:07;;;;;;;8.02;2.75;;;20.30;57.70;;;;;;5146124;27;20046;-71
2021/12/20 12:12:40;;;;;;;10.50;3.70;;;20.50;55.70;;;;;;5130314;27;20047;-72
2021/12/20 12:15:09;;;;;;;14.65;3.50;;;20.60;57.80;;;;;;5133029;27;20094;-71
2021/12/20 12:17:55;;;;;;;10.45;3.15;;;20.50;58.60;;;;;;5135851;27;20444;-71
2021/12/20 12:20:53;;;;;;;9.45;3.10;;;20.70;54.80;;;;;;5132314;27;20115;-71
2021/12/20 12:23:22;;;;;;;7.75;2.17;;;20.70;55.50;;;;;;5045383;28;20485;-72
2021/12/20 12:25:54;;;;;;;8.00;2.78;;;20.60;55.50;;;;;;5110319;27;20054;-72
2021/12/20 12:28:24;;;;;;;6.43;2.65;;;20.90;53.70;;;;;;5115517;27;20090;-71
2021/12/20 12:31:02;;;;;;;6.72;3.08;;;21.10;53.80;;;;;;5116406;27;20123;-71
2021/12/20 12:33:36;;;;;;;8.27;3.15;;;21.20;53.30;;;;;;5125005;27;20054;-71
2021/12/20 12:36:06;;;;;;;12.38;2.80;;;21.50;52.60;;;;;;5129779;27;20092;-72
2021/12/20 12:38:35;;;;;;;;;;;21.60;52.40;;;;;;5128026;27;20511;-72
2021/12/20 12:41:18;;;;;;;5.93;1.80;;;20.90;51.00;;;;;;5114402;27;19919;-72
2021/12/20 12:44:07;;;;;;;8.88;2.60;;;20.60;50.00;;;;;;5119849;27;20062;-72
2021/12/20 12:47:00;;;;;;;4.97;2.15;;;20.90;50.60;;;;;;5124451;27;20093;-72
2021/12/20 12:49:47;;;;;;;7.25;1.85;;;21.60;51.10;;;;;;5119449;27;20107;-72
2021/12/20 12:52:37;;;;;;;4.65;1.27;;;21.10;46.90;;;;;;5124268;27;20055;-72
2021/12/20 12:55:08;;;;;;;3.88;1.00;;;21.10;45.60;;;;;;5132765;27;20086;-72
2021/12/20 12:57:38;;;;;;;3.20;1.02;;;21.30;47.30;;;;;;5135006;27;20076;-72
2021/12/20 13:00:22;;;;;;;2.45;1.02;;;21.20;46.10;;;;;;5126531;27;20059;-72
2021/12/20 13:02:51;;;;;;;3.20;1.10;;;21.60;44.20;;;;;;5127120;27;20050;-72
2021/12/20 13:05:22;;;;;;;4.80;1.25;;;21.50;45.50;;;;;;5149038;27;20060;-72
2021/12/20 13:07:51;;;;;;;4.18;1.33;;;21.60;44.50;;;;;;5122598;27;20493;-72
2021/12/20 13:10:20;;;;;;;4.90;1.52;;;20.80;44.20;;;;;;5141793;27;20102;-72
2021/12/20 13:12:53;;;;;;;5.13;1.02;;;20.20;44.00;;;;;;5125887;27;20055;-72